Captain Jimmy T Moran — WDE6653 — position and weather

sailwx.info

Track history (hours):
 
Tides and Currents Weather Stations Pressure Air Temp Water Temp Dewpoint Dewpoint Depression Visibility Wind Speed Wind Dir Waves Ship Positions

Captain Jimmy T Moran

Owner: Moran Towing Corp, New Cannan, CT. More information available from US FCC via Universal Licensing System and Coast Guard Vessel Documentation Center.

Last reported at 2014-Oct-31 13:25 UTC. Time now 2014-Oct-31 14:29 UTC.
Position N 29°57' W 090°01'.

Length 26 m; draft 4.9 m.

Type: Tug. MMSI: 367382920.

Date/timePositionNaut miles runAvg speedWind from/ knotsBaromVisibWave heightAir tempDewpointWater temp
2014-Oct-31 13:25N 29°57' W 090°01'0 0.0
2014-Oct-31 12:11N 29°57' W 090°01'0 0.0
2014-Oct-31 11:33N 29°57' W 090°01'0 0.0
2014-Oct-31 10:32N 29°57' W 090°01'0 0.0
2014-Oct-31 07:09N 29°57' W 090°01'4 1.6
2014-Oct-31 04:26N 29°55' W 090°05'2 2.6
2014-Oct-31 03:33N 29°57' W 090°04'3 1.1
2014-Oct-31 00:31N 29°55' W 090°07'5 2.4
2014-Oct-30 22:23N 29°57' W 090°01'0 0.0
2014-Oct-30 16:31N 29°57' W 090°01'0 0.0
2014-Oct-30 15:23N 29°57' W 090°01'2 2.5
2014-Oct-30 14:33N 29°57' W 090°04'3 0.5
2014-Oct-30 08:25N 29°55' W 090°06'0 0.6
2014-Oct-30 07:31N 29°55' W 090°06'0 0.0
2014-Oct-30 06:30N 29°55' W 090°07'3 1.0
2014-Oct-30 03:32N 29°56' W 090°04'1 0.8
2014-Oct-30 02:24N 29°57' W 090°03'0 0.0
2014-Oct-30 01:33N 29°57' W 090°03'0 0.0
2014-Oct-30 00:31N 29°57' W 090°03'0 0.0
2014-Oct-29 23:29N 29°57' W 090°03'0 0.0
2014-Oct-29 16:30N 29°57' W 090°03'0 0.0
2014-Oct-29 14:10N 29°57' W 090°03'0 0.0
2014-Oct-29 13:33N 29°57' W 090°03'4 0.3
2014-Oct-29 02:33N 29°55' W 090°07'4 0.2
2014-Oct-28 08:33N 29°55' W 090°12'6 0.9
2014-Oct-28 02:33N 29°55' W 090°05'1 0.8
2014-Oct-28 01:32N 29°55' W 090°04'2 0.1
2014-Oct-27 09:13N 29°55' W 090°06'1 0.1
2014-Oct-26 21:07N 29°55' W 090°05'2 3.0
2014-Oct-26 20:33N 29°56' W 090°04'4 3.7
2014-Oct-26 19:32N 29°56' W 089°59'0 0.0
2014-Oct-25 02:29N 29°56' W 089°59'3 2.9
2014-Oct-25 01:32N 29°58' W 090°02'0 0.0
2014-Oct-25 00:31N 29°58' W 090°02'0 0.0
2014-Oct-24 23:33N 29°58' W 090°02'0 0.0
2014-Oct-24 22:33N 29°58' W 090°02'1 0.7
2014-Oct-24 21:33N 29°57' W 090°02'1 0.7
2014-Oct-24 20:33N 29°58' W 090°02'0 0.0
2014-Oct-24 19:33N 29°58' W 090°02'3 3.1
2014-Oct-24 18:31N 29°55' W 090°05'1 0.1
2014-Oct-24 08:24N 29°55' W 090°06'5 1.3
2014-Oct-24 04:31N 29°57' W 090°01'0 0.0
2014-Oct-24 03:31N 29°57' W 090°01'0 0.0
2014-Oct-24 02:22N 29°57' W 090°01'0 0.0
2014-Oct-24 01:19N 29°57' W 090°01'0 0.0
2014-Oct-24 00:34N 29°57' W 090°01'0 0.0
2014-Oct-23 23:33N 29°57' W 090°01'0 0.0
2014-Oct-23 22:33N 29°57' W 090°01'0 0.0
2014-Oct-23 21:30N 29°57' W 090°01'0 0.0
2014-Oct-23 20:32N 29°57' W 090°01'2 0.1
2014-Oct-22 23:31N 29°56' W 090°04'3 0.3
2014-Oct-22 13:22N 29°55' W 090°06'  
Track history (hours):
 
Tides and Currents Weather Stations Pressure Air Temp Water Temp Dewpoint Dewpoint Depression Visibility Wind Speed Wind Dir Waves Ship Positions

Captain Jimmy T Moran

Owner: Moran Towing Corp, New Cannan, CT. More information available from US FCC via Universal Licensing System and Coast Guard Vessel Documentation Center.

Last reported at 2014-Oct-31 13:25 UTC. Time now 2014-Oct-31 14:29 UTC.
Position N 29°57' W 090°01'.

Length 26 m; draft 4.9 m.

Type: Tug. MMSI: 367382920.

Date/timePositionNaut miles runAvg speedWind from/ knotsBaromVisibWave heightAir tempDewpointWater temp
2014-Oct-31 13:25N 29°57' W 090°01'0 0.0
2014-Oct-31 12:11N 29°57' W 090°01'0 0.0
2014-Oct-31 11:33N 29°57' W 090°01'0 0.0
2014-Oct-31 10:32N 29°57' W 090°01'0 0.0
2014-Oct-31 07:09N 29°57' W 090°01'4 1.6
2014-Oct-31 04:26N 29°55' W 090°05'2 2.6
2014-Oct-31 03:33N 29°57' W 090°04'3 1.1
2014-Oct-31 00:31N 29°55' W 090°07'5 2.4
2014-Oct-30 22:23N 29°57' W 090°01'0 0.0
2014-Oct-30 16:31N 29°57' W 090°01'0 0.0
2014-Oct-30 15:23N 29°57' W 090°01'2 2.5
2014-Oct-30 14:33N 29°57' W 090°04'3 0.5
2014-Oct-30 08:25N 29°55' W 090°06'0 0.6
2014-Oct-30 07:31N 29°55' W 090°06'0 0.0
2014-Oct-30 06:30N 29°55' W 090°07'3 1.0
2014-Oct-30 03:32N 29°56' W 090°04'1 0.8
2014-Oct-30 02:24N 29°57' W 090°03'0 0.0
2014-Oct-30 01:33N 29°57' W 090°03'0 0.0
2014-Oct-30 00:31N 29°57' W 090°03'0 0.0
2014-Oct-29 23:29N 29°57' W 090°03'0 0.0
2014-Oct-29 16:30N 29°57' W 090°03'0 0.0
2014-Oct-29 14:10N 29°57' W 090°03'0 0.0
2014-Oct-29 13:33N 29°57' W 090°03'4 0.3
2014-Oct-29 02:33N 29°55' W 090°07'4 0.2
2014-Oct-28 08:33N 29°55' W 090°12'6 0.9
2014-Oct-28 02:33N 29°55' W 090°05'1 0.8
2014-Oct-28 01:32N 29°55' W 090°04'2 0.1
2014-Oct-27 09:13N 29°55' W 090°06'1 0.1
2014-Oct-26 21:07N 29°55' W 090°05'2 3.0
2014-Oct-26 20:33N 29°56' W 090°04'4 3.7
2014-Oct-26 19:32N 29°56' W 089°59'0 0.0
2014-Oct-25 02:29N 29°56' W 089°59'3 2.9
2014-Oct-25 01:32N 29°58' W 090°02'0 0.0
2014-Oct-25 00:31N 29°58' W 090°02'0 0.0
2014-Oct-24 23:33N 29°58' W 090°02'0 0.0
2014-Oct-24 22:33N 29°58' W 090°02'1 0.7
2014-Oct-24 21:33N 29°57' W 090°02'1 0.7
2014-Oct-24 20:33N 29°58' W 090°02'0 0.0
2014-Oct-24 19:33N 29°58' W 090°02'3 3.1
2014-Oct-24 18:31N 29°55' W 090°05'1 0.1
2014-Oct-24 08:24N 29°55' W 090°06'5 1.3
2014-Oct-24 04:31N 29°57' W 090°01'0 0.0
2014-Oct-24 03:31N 29°57' W 090°01'0 0.0
2014-Oct-24 02:22N 29°57' W 090°01'0 0.0
2014-Oct-24 01:19N 29°57' W 090°01'0 0.0
2014-Oct-24 00:34N 29°57' W 090°01'0 0.0
2014-Oct-23 23:33N 29°57' W 090°01'0 0.0
2014-Oct-23 22:33N 29°57' W 090°01'0 0.0
2014-Oct-23 21:30N 29°57' W 090°01'0 0.0
2014-Oct-23 20:32N 29°57' W 090°01'2 0.1
2014-Oct-22 23:31N 29°56' W 090°04'3 0.3
2014-Oct-22 13:22N 29°55' W 090°06'  

Dump ship's entire track history